createdAt,value
2022-10-20T00:00:35.630Z,95580.31
2022-10-20T00:03:03.460Z,95566.06
2022-10-20T00:05:31.188Z,95566.47
2022-10-20T00:08:00.289Z,95573.00
2022-10-20T00:10:27.992Z,95566.06
2022-10-20T00:12:55.719Z,95563.72
2022-10-20T00:15:23.478Z,95568.25
2022-10-20T00:17:51.225Z,95565.88
2022-10-20T00:20:19.263Z,95565.69
2022-10-20T00:22:47.174Z,95575.78
2022-10-20T00:25:16.480Z,95563.50
2022-10-20T00:27:44.292Z,95568.06
2022-10-20T00:30:12.509Z,95565.28
2022-10-20T00:32:40.228Z,95548.25
2022-10-20T00:35:08.708Z,95555.56
2022-10-20T00:37:36.476Z,95558.94
2022-10-20T00:40:06.360Z,95547.25
2022-10-20T00:42:36.884Z,95552.16
2022-10-20T00:45:12.952Z,95553.38
2022-10-20T00:50:18.711Z,95537.75
2022-10-20T00:52:47.661Z,95532.75
2022-10-20T00:55:24.422Z,95531.19
2022-10-20T00:57:56.679Z,95529.56
2022-10-20T01:00:24.597Z,95518.50
2022-10-20T01:02:54.974Z,95517.31
2022-10-20T01:05:23.050Z,95521.47
2022-10-20T01:07:50.870Z,95514.34
2022-10-20T01:10:19.633Z,95521.22
2022-10-20T01:12:57.746Z,95515.69
2022-10-20T01:15:33.973Z,95517.69
2022-10-20T01:18:06.085Z,95513.97
2022-10-20T01:20:53.422Z,95503.47
2022-10-20T01:23:53.490Z,95506.03
2022-10-20T01:26:44.693Z,95508.03
2022-10-20T01:29:20.778Z,95501.16
2022-10-20T01:31:59.527Z,95500.34
2022-10-20T01:34:36.627Z,95501.13
2022-10-20T01:37:10.077Z,95501.44
2022-10-20T01:39:45.536Z,95500.66
2022-10-20T01:42:18.000Z,95500.25
2022-10-20T01:44:49.580Z,95493.56
2022-10-20T01:47:18.635Z,95494.56
2022-10-20T01:49:49.266Z,95486.25
2022-10-20T01:52:17.186Z,95489.81
2022-10-20T01:54:44.979Z,95488.22
2022-10-20T01:57:25.142Z,95485.28
2022-10-20T02:00:04.638Z,95490.06
2022-10-20T02:02:41.317Z,95492.59
2022-10-20T02:05:25.022Z,95481.13
2022-10-20T02:07:55.360Z,95480.78
2022-10-20T02:10:29.820Z,95474.22
2022-10-20T02:13:02.399Z,95467.09
2022-10-20T02:15:33.648Z,95455.78
2022-10-20T02:18:05.650Z,95467.69
2022-10-20T02:20:35.442Z,95468.47
2022-10-20T02:23:05.717Z,95476.59
2022-10-20T02:25:35.004Z,95455.63
2022-10-20T02:28:05.489Z,95448.91
2022-10-20T02:30:35.329Z,95450.28
2022-10-20T02:33:04.105Z,95440.19
2022-10-20T02:35:34.086Z,95456.41
2022-10-20T02:38:02.296Z,95437.03
2022-10-20T02:40:30.617Z,95437.00
2022-10-20T02:42:58.361Z,95439.72
2022-10-20T02:45:26.126Z,95435.19
2022-10-20T02:47:55.221Z,95439.31
2022-10-20T02:50:22.934Z,95436.38
2022-10-20T02:52:50.639Z,95443.09
2022-10-20T02:57:51.241Z,95434.22
2022-10-20T03:00:19.101Z,95435.59
2022-10-20T03:02:47.789Z,95426.72
2022-10-20T03:05:18.691Z,95436.19
2022-10-20T03:07:46.410Z,95438.38
2022-10-20T03:10:14.198Z,95431.28
2022-10-20T03:12:41.994Z,95433.81
2022-10-20T03:15:10.294Z,95434.81
2022-10-20T03:17:38.310Z,95440.94
2022-10-20T03:20:07.516Z,95445.28
2022-10-20T03:22:36.620Z,95436.81
2022-10-20T03:25:04.747Z,95436.00
2022-10-20T03:27:32.494Z,95443.31
2022-10-20T03:30:00.260Z,95442.53
2022-10-20T03:32:28.000Z,95438.78
2022-10-20T03:34:55.724Z,95439.97
2022-10-20T03:37:23.498Z,95441.34
2022-10-20T03:39:52.573Z,95435.25
2022-10-20T03:42:20.289Z,95431.47
2022-10-20T03:44:48.034Z,95437.63
2022-10-20T03:47:15.811Z,95440.16
2022-10-20T03:49:43.605Z,95432.81
2022-10-20T03:52:11.312Z,95437.59
2022-10-20T03:54:40.751Z,95431.28
2022-10-20T03:57:09.897Z,95424.34
2022-10-20T03:59:37.653Z,95433.06
2022-10-20T04:02:05.603Z,95431.28
2022-10-20T04:04:33.387Z,95431.09
2022-10-20T04:07:01.119Z,95430.50
2022-10-20T04:09:28.852Z,95426.13
2022-10-20T04:11:56.580Z,95428.72
2022-10-20T04:14:25.702Z,95427.53
2022-10-20T04:16:53.437Z,95427.53
2022-10-20T04:19:21.159Z,95436.59
2022-10-20T04:21:48.882Z,95431.84
2022-10-20T04:24:16.696Z,95432.28
2022-10-20T04:26:44.527Z,95426.53
2022-10-20T04:29:12.323Z,95419.03
2022-10-20T04:31:45.309Z,95416.06
2022-10-20T04:34:15.981Z,95419.00
2022-10-20T04:36:43.727Z,95418.06
2022-10-20T04:39:11.486Z,95422.00
2022-10-20T04:41:39.248Z,95412.34
2022-10-20T04:44:08.936Z,95405.00
2022-10-20T04:46:36.701Z,95399.06
2022-10-20T04:49:06.350Z,95399.44
2022-10-20T04:51:34.083Z,95404.78
2022-10-20T04:54:01.965Z,95403.59
2022-10-20T04:56:29.903Z,95405.78
2022-10-20T04:58:59.545Z,95404.56
2022-10-20T05:01:29.156Z,95418.44
2022-10-20T05:03:57.392Z,95410.09
2022-10-20T05:06:28.147Z,95400.41
2022-10-20T05:08:57.995Z,95400.19
2022-10-20T05:11:27.939Z,95400.84
2022-10-20T05:13:56.457Z,95394.47
2022-10-20T05:16:29.082Z,95388.13
2022-10-20T05:18:58.049Z,95386.75
2022-10-20T05:21:29.487Z,95394.28
2022-10-20T05:23:58.517Z,95392.88
2022-10-20T05:26:27.608Z,95401.81
2022-10-20T05:28:55.597Z,95399.84
2022-10-20T05:31:24.339Z,95404.19
2022-10-20T05:33:55.920Z,95398.44
2022-10-20T05:36:28.519Z,95399.63
2022-10-20T05:39:00.939Z,95392.34
2022-10-20T05:41:33.338Z,95380.03
2022-10-20T05:44:08.517Z,95389.16
2022-10-20T05:46:41.095Z,95390.56
2022-10-20T05:49:13.945Z,95390.13
2022-10-20T05:51:43.310Z,95393.13
2022-10-20T05:54:13.287Z,95382.03
2022-10-20T05:56:41.165Z,95384.97
2022-10-20T05:59:10.721Z,95392.13
2022-10-20T06:01:48.126Z,95391.91
2022-10-20T06:04:18.264Z,95396.06
2022-10-20T06:06:48.858Z,95398.06
2022-10-20T06:09:19.429Z,95388.78
2022-10-20T06:11:47.424Z,95402.00
2022-10-20T06:14:15.603Z,95398.47
2022-10-20T06:16:43.594Z,95391.50
2022-10-20T06:19:11.772Z,95407.91
2022-10-20T06:21:39.855Z,95398.81
2022-10-20T06:24:11.464Z,95413.25
2022-10-20T06:26:40.157Z,95421.97
2022-10-20T06:29:10.633Z,95415.13
2022-10-20T06:31:40.328Z,95419.00
2022-10-20T06:34:10.567Z,95420.69
2022-10-20T06:36:40.199Z,95418.25
2022-10-20T06:39:12.862Z,95415.47
2022-10-20T06:41:40.943Z,95413.88
2022-10-20T06:44:18.570Z,95408.31
2022-10-20T06:46:46.612Z,95415.81
2022-10-20T06:49:15.465Z,95409.53
2022-10-20T06:51:43.242Z,95401.53
2022-10-20T06:54:12.471Z,95400.09
2022-10-20T06:56:42.499Z,95408.19
2022-10-20T06:59:10.356Z,95401.88
2022-10-20T07:01:39.874Z,95407.34
2022-10-20T07:04:08.987Z,95413.06
2022-10-20T07:06:41.655Z,95411.66
2022-10-20T07:09:14.327Z,95410.50
2022-10-20T07:11:42.789Z,95412.41
2022-10-20T07:14:12.782Z,95416.31
2022-10-20T07:16:41.052Z,95408.59
2022-10-20T07:19:08.943Z,95420.59
2022-10-20T07:21:40.171Z,95414.63
2022-10-20T07:24:09.779Z,95402.03
2022-10-20T07:26:40.906Z,95406.09
2022-10-20T07:29:08.832Z,95409.25
2022-10-20T07:31:38.557Z,95407.59
2022-10-20T07:34:26.431Z,95416.03
2022-10-20T07:36:56.029Z,95405.66
2022-10-20T07:39:24.421Z,95402.94
2022-10-20T07:41:54.031Z,95395.84
2022-10-20T07:44:21.991Z,95399.66
2022-10-20T07:46:50.144Z,95401.81
2022-10-20T07:52:06.288Z,95392.69
2022-10-20T07:54:34.118Z,95387.50
2022-10-20T07:57:03.742Z,95378.22
2022-10-20T07:59:31.582Z,95384.78
2022-10-20T08:02:00.171Z,95372.91
2022-10-20T08:04:28.987Z,95373.88
2022-10-20T08:06:56.885Z,95378.03
2022-10-20T08:09:24.833Z,95377.84
2022-10-20T08:11:55.380Z,95374.91
2022-10-20T08:14:27.614Z,95364.81
2022-10-20T08:17:00.645Z,95379.66
2022-10-20T08:19:33.430Z,95379.03
2022-10-20T08:22:02.997Z,95372.75
2022-10-20T08:24:31.425Z,95363.78
2022-10-20T08:26:59.259Z,95377.00
2022-10-20T08:29:28.577Z,95369.88
2022-10-20T08:31:56.764Z,95368.75
2022-10-20T08:34:24.632Z,95373.34
2022-10-20T08:36:52.490Z,95374.53
2022-10-20T08:39:20.433Z,95362.88
2022-10-20T08:42:09.060Z,95365.19
2022-10-20T08:44:40.948Z,95360.16
2022-10-20T08:47:19.348Z,95363.00
2022-10-20T08:49:47.771Z,95373.38
2022-10-20T08:52:17.117Z,95371.75
2022-10-20T08:54:45.378Z,95367.59
2022-10-20T08:57:22.308Z,95379.19
2022-10-20T08:59:54.466Z,95366.72
2022-10-20T09:02:23.854Z,95359.78
2022-10-20T09:04:55.843Z,95337.00
2022-10-20T09:07:29.136Z,95370.78
2022-10-20T09:10:05.944Z,95369.78
2022-10-20T09:12:35.632Z,95370.84
2022-10-20T09:15:05.418Z,95360.59
2022-10-20T09:17:33.556Z,95366.00
2022-10-20T09:20:03.625Z,95374.09
2022-10-20T09:22:35.904Z,95368.56
2022-10-20T09:25:05.491Z,95374.09
2022-10-20T09:27:39.801Z,95378.84
2022-10-20T09:30:20.986Z,95368.91
2022-10-20T09:32:49.632Z,95374.44
2022-10-20T09:35:21.715Z,95374.69
2022-10-20T09:37:55.034Z,95375.44
2022-10-20T09:40:24.210Z,95369.22
2022-10-20T09:42:55.666Z,95363.69
2022-10-20T09:45:28.764Z,95366.19
2022-10-20T09:48:04.800Z,95378.59
2022-10-20T09:50:36.123Z,95377.47
2022-10-20T09:53:07.526Z,95378.44
2022-10-20T09:55:42.272Z,95377.78
2022-10-20T09:58:22.071Z,95367.53
2022-10-20T10:01:00.196Z,95369.28
2022-10-20T10:03:28.454Z,95378.34
2022-10-20T10:05:58.488Z,95371.56
2022-10-20T10:08:29.651Z,95353.78
2022-10-20T10:11:02.982Z,95356.75
2022-10-20T10:13:32.990Z,95358.75
2022-10-20T10:16:10.584Z,95352.03
2022-10-20T10:18:39.708Z,95349.91
2022-10-20T10:21:09.545Z,95364.28
2022-10-20T10:23:51.018Z,95369.84
2022-10-20T10:26:45.685Z,95349.31
2022-10-20T10:29:27.211Z,95359.97
2022-10-20T10:32:02.315Z,95363.31
2022-10-20T10:34:48.400Z,95361.31
2022-10-20T10:37:18.021Z,95366.97
2022-10-20T10:39:46.181Z,95361.13
2022-10-20T10:42:46.454Z,95355.47
2022-10-20T10:45:20.455Z,95347.41
2022-10-20T10:48:10.742Z,95335.44
2022-10-20T10:50:45.413Z,95341.31
2022-10-20T10:53:29.844Z,95344.13
2022-10-20T10:56:05.061Z,95347.69
2022-10-20T10:58:46.180Z,95343.22
2022-10-20T11:01:41.018Z,95331.63
2022-10-20T11:04:51.506Z,95325.25
2022-10-20T11:07:31.052Z,95324.53
2022-10-20T11:10:06.078Z,95317.94
2022-10-20T11:12:57.236Z,95328.13
2022-10-20T11:15:35.884Z,95317.88
2022-10-20T11:18:11.773Z,95312.75
2022-10-20T11:20:51.257Z,95301.97
2022-10-20T11:23:45.609Z,95313.38
2022-10-20T11:26:19.742Z,95314.19
2022-10-20T11:28:50.758Z,95328.44
2022-10-20T11:31:25.732Z,95320.50
2022-10-20T11:34:01.787Z,95320.16
2022-10-20T11:36:36.925Z,95322.22
2022-10-20T11:39:10.659Z,95322.91
2022-10-20T11:41:48.487Z,95316.16
2022-10-20T11:44:22.469Z,95310.19
2022-10-20T11:46:54.110Z,95314.56
2022-10-20T11:49:22.281Z,95311.47
2022-10-20T11:52:23.098Z,95296.53
2022-10-20T11:55:07.523Z,95304.22
2022-10-20T11:57:51.574Z,95299.28
2022-10-20T12:00:41.313Z,95290.09
2022-10-20T12:03:37.736Z,95301.53
2022-10-20T12:06:41.079Z,95295.34
2022-10-20T12:09:32.179Z,95279.72
2022-10-20T12:12:04.456Z,95285.97
2022-10-20T12:14:37.822Z,95291.94
2022-10-20T12:17:15.523Z,95288.75
2022-10-20T12:19:44.356Z,95291.63
2022-10-20T12:22:42.115Z,95285.66
2022-10-20T12:25:20.299Z,95284.41
2022-10-20T12:27:48.471Z,95279.47
2022-10-20T12:30:45.304Z,95277.66
2022-10-20T12:33:19.583Z,95284.19
2022-10-20T12:36:23.536Z,95287.63
2022-10-20T12:38:53.633Z,95289.56
2022-10-20T12:41:32.871Z,95282.53
2022-10-20T12:44:02.719Z,95277.94
2022-10-20T12:46:32.516Z,95284.00
2022-10-20T12:49:06.684Z,95266.03
2022-10-20T12:51:40.951Z,95270.59
2022-10-20T12:54:22.532Z,95269.53
2022-10-20T12:56:53.467Z,95257.28
2022-10-20T12:59:39.241Z,95261.25
2022-10-20T13:02:55.013Z,95267.97
2022-10-20T13:05:43.158Z,95259.16
2022-10-20T13:08:29.910Z,95250.81
2022-10-20T13:11:19.106Z,95251.72
2022-10-20T13:14:03.059Z,95252.84
2022-10-20T13:16:33.989Z,95257.47
2022-10-20T13:19:02.533Z,95259.91
2022-10-20T13:21:33.346Z,95274.22
2022-10-20T13:24:15.010Z,95270.06
2022-10-20T13:26:51.158Z,95272.22
2022-10-20T13:29:27.962Z,95274.56
2022-10-20T13:32:15.166Z,95287.00
2022-10-20T13:34:50.024Z,95287.50
2022-10-20T13:37:33.478Z,95287.31
2022-10-20T13:40:11.589Z,95279.13
2022-10-20T13:42:51.145Z,95276.44
2022-10-20T13:45:30.936Z,95270.88
2022-10-20T13:48:16.267Z,95294.72
2022-10-20T13:50:49.765Z,95288.06
2022-10-20T13:53:34.236Z,95290.75
2022-10-20T13:56:06.863Z,95299.59
2022-10-20T13:58:35.489Z,95291.66
2022-10-20T14:01:06.599Z,95293.53
2022-10-20T14:03:42.823Z,95289.03
2022-10-20T14:06:32.141Z,95300.44
2022-10-20T14:09:09.749Z,95308.25
2022-10-20T14:11:37.708Z,95305.03
2022-10-20T14:14:05.549Z,95309.13
2022-10-20T14:16:34.943Z,95302.41
2022-10-20T14:19:05.228Z,95300.75
2022-10-20T14:21:41.183Z,95304.50
2022-10-20T14:24:15.362Z,95299.16
2022-10-20T14:26:45.058Z,95297.94
2022-10-20T14:29:15.501Z,95305.38
2022-10-20T14:31:46.680Z,95305.31
2022-10-20T14:34:21.031Z,95301.25
2022-10-20T14:36:49.670Z,95300.25
2022-10-20T14:39:33.839Z,95287.41
2022-10-20T14:42:03.692Z,95283.25
2022-10-20T14:44:32.116Z,95272.75
2022-10-20T14:47:05.977Z,95272.75
2022-10-20T14:49:38.440Z,95260.69
2022-10-20T14:52:21.802Z,95268.00
2022-10-20T14:54:51.369Z,95283.09
2022-10-20T14:57:32.646Z,95295.81
2022-10-20T15:02:58.583Z,95297.19
2022-10-20T15:05:39.752Z,95271.66
2022-10-20T15:08:18.609Z,95259.16
2022-10-20T15:10:46.593Z,95261.94
2022-10-20T15:13:26.509Z,95269.59
2022-10-20T15:15:56.644Z,95258.88
2022-10-20T15:18:26.720Z,95252.03
2022-10-20T15:20:55.946Z,95240.03
2022-10-20T15:23:25.347Z,95242.16
2022-10-20T15:25:55.535Z,95226.00
2022-10-20T15:28:37.647Z,95232.41
2022-10-20T15:31:07.956Z,95226.47
2022-10-20T15:33:37.165Z,95234.13
2022-10-20T15:36:13.319Z,95234.09
2022-10-20T15:38:52.620Z,95221.94
2022-10-20T15:41:23.043Z,95230.34
2022-10-20T15:43:50.872Z,95222.72
2022-10-20T15:46:19.622Z,95211.03
2022-10-20T15:48:49.396Z,95200.66
2022-10-20T15:51:22.234Z,95210.34
2022-10-20T15:53:50.031Z,95186.38
2022-10-20T15:56:19.621Z,95170.75
2022-10-20T15:58:47.563Z,95179.38
2022-10-20T16:01:16.789Z,95177.25
2022-10-20T16:03:45.076Z,95177.94
2022-10-20T16:06:16.369Z,95175.22
2022-10-20T16:08:45.826Z,95174.00
2022-10-20T16:11:15.194Z,95169.28
2022-10-20T16:13:43.321Z,95168.22
2022-10-20T16:16:14.849Z,95170.22
2022-10-20T16:18:48.778Z,95172.50
2022-10-20T16:21:18.119Z,95176.94
2022-10-20T16:23:45.924Z,95171.00
2022-10-20T16:26:15.356Z,95162.69
2022-10-20T16:28:43.692Z,95162.69
2022-10-20T16:31:14.075Z,95162.56
2022-10-20T16:33:41.882Z,95160.41
2022-10-20T16:36:11.640Z,95157.69
2022-10-20T16:38:40.868Z,95147.44
2022-10-20T16:41:10.953Z,95150.31
2022-10-20T16:43:39.158Z,95140.66
2022-10-20T16:46:07.998Z,95144.34
2022-10-20T16:48:37.848Z,95139.59
2022-10-20T16:51:07.113Z,95135.09
2022-10-20T16:53:35.576Z,95128.56
2022-10-20T16:56:05.615Z,95124.41
2022-10-20T16:58:33.860Z,95132.47
2022-10-20T17:01:04.027Z,95128.31
2022-10-20T17:03:32.218Z,95130.91
2022-10-20T17:06:02.143Z,95136.69
2022-10-20T17:08:31.921Z,95145.81
2022-10-20T17:11:01.185Z,95146.38
2022-10-20T17:13:31.294Z,95145.59
2022-10-20T17:16:05.163Z,95137.28
2022-10-20T17:18:32.939Z,95138.06
2022-10-20T17:21:00.948Z,95126.81
2022-10-20T17:23:28.888Z,95123.03
2022-10-20T17:26:02.239Z,95118.34
2022-10-20T17:28:32.854Z,95131.09
2022-10-20T17:31:00.886Z,95135.47
2022-10-20T17:33:30.316Z,95139.84
2022-10-20T17:35:59.675Z,95142.41
2022-10-20T17:38:29.302Z,95145.00
2022-10-20T17:40:57.500Z,95147.47
2022-10-20T17:43:25.249Z,95137.72
2022-10-20T17:45:58.927Z,95139.94
2022-10-20T17:48:27.006Z,95126.91
2022-10-20T17:51:02.815Z,95124.75
2022-10-20T17:53:32.318Z,95114.44
2022-10-20T17:56:02.426Z,95101.97
2022-10-20T17:58:30.333Z,95090.41
2022-10-20T18:01:11.309Z,95092.97
2022-10-20T18:03:40.004Z,95096.75
2022-10-20T18:06:09.694Z,95091.41
2022-10-20T18:08:46.588Z,95088.66
2022-10-20T18:11:19.883Z,95076.78
2022-10-20T18:13:58.286Z,95075.34
2022-10-20T18:16:29.232Z,95073.56
2022-10-20T18:21:33.203Z,95081.72
2022-10-20T18:24:03.168Z,95084.31
2022-10-20T18:26:32.076Z,95092.47
2022-10-20T18:29:01.751Z,95083.16
2022-10-20T18:31:32.633Z,95076.78
2022-10-20T18:34:04.396Z,95076.78
2022-10-20T18:36:36.902Z,95092.88
2022-10-20T18:39:08.431Z,95091.72
2022-10-20T18:41:39.023Z,95080.34
2022-10-20T18:44:10.008Z,95069.63
2022-10-20T18:46:39.917Z,95064.13
2022-10-20T18:49:09.037Z,95060.75
2022-10-20T18:51:38.269Z,95061.53
2022-10-20T18:54:07.407Z,95063.84
2022-10-20T18:56:36.471Z,95060.81
2022-10-20T18:59:06.665Z,95062.66
2022-10-20T19:01:36.329Z,95059.88
2022-10-20T19:04:06.631Z,95056.50
2022-10-20T19:06:36.654Z,95067.97
2022-10-20T19:09:06.831Z,95072.38
2022-10-20T19:11:39.858Z,95073.16
2022-10-20T19:14:09.587Z,95057.28
2022-10-20T19:16:37.923Z,95061.44
2022-10-20T19:19:09.016Z,95048.78
2022-10-20T19:21:37.442Z,95066.69
2022-10-20T19:24:07.653Z,95060.41
2022-10-20T19:26:37.518Z,95054.91
2022-10-20T19:29:07.320Z,95049.75
2022-10-20T19:31:38.420Z,95058.88
2022-10-20T19:34:09.717Z,95055.59
2022-10-20T19:36:38.025Z,95050.69
2022-10-20T19:39:06.933Z,95052.66
2022-10-20T19:41:34.753Z,95050.88
2022-10-20T19:44:03.972Z,95061.66
2022-10-20T19:46:31.945Z,95061.94
2022-10-20T19:49:00.224Z,95072.47
2022-10-20T19:51:31.067Z,95066.34
2022-10-20T19:53:59.308Z,95068.13
2022-10-20T19:56:27.167Z,95069.53
2022-10-20T19:58:55.115Z,95070.91
2022-10-20T20:01:23.038Z,95072.69
2022-10-20T20:03:50.882Z,95079.25
2022-10-20T20:06:20.478Z,95079.44
2022-10-20T20:08:52.706Z,95077.47
2022-10-20T20:11:24.146Z,95071.53
2022-10-20T20:13:52.553Z,95065.38
2022-10-20T20:16:20.665Z,95063.66
2022-10-20T20:18:48.776Z,95073.38
2022-10-20T20:21:17.618Z,95073.19
2022-10-20T20:23:58.804Z,95088.09
2022-10-20T20:26:29.187Z,95099.25
2022-10-20T20:28:57.891Z,95105.56
2022-10-20T20:31:26.515Z,95085.97
2022-10-20T20:33:56.562Z,95104.13
2022-10-20T20:36:26.967Z,95105.97
2022-10-20T20:38:57.339Z,95107.59
2022-10-20T20:41:27.413Z,95110.41
2022-10-20T20:43:56.604Z,95107.06
2022-10-20T20:46:27.478Z,95117.34
2022-10-20T20:48:55.292Z,95116.94
2022-10-20T20:51:23.394Z,95125.84
2022-10-20T20:53:51.128Z,95140.84
2022-10-20T20:56:21.865Z,95136.09
2022-10-20T20:58:54.962Z,95140.25
2022-10-20T21:01:27.271Z,95153.69
2022-10-20T21:03:56.131Z,95162.19
2022-10-20T21:06:33.089Z,95160.22
2022-10-20T21:09:02.533Z,95170.31
2022-10-20T21:11:30.529Z,95172.72
2022-10-20T21:13:59.987Z,95174.91
2022-10-20T21:16:31.075Z,95182.00
2022-10-20T21:19:00.937Z,95179.25
2022-10-20T21:21:31.409Z,95184.00
2022-10-20T21:24:00.298Z,95190.31
2022-10-20T21:26:28.820Z,95182.22
2022-10-20T21:28:57.059Z,95180.63
2022-10-20T21:31:26.630Z,95192.50
2022-10-20T21:34:00.730Z,95187.97
2022-10-20T21:36:30.907Z,95189.34
2022-10-20T21:38:59.216Z,95196.25
2022-10-20T21:41:28.498Z,95194.47
2022-10-20T21:43:57.958Z,95227.00
2022-10-20T21:46:27.654Z,95234.63
2022-10-20T21:49:00.245Z,95222.91
2022-10-20T21:51:30.339Z,95229.47
2022-10-20T21:53:59.297Z,95235.19
2022-10-20T21:56:27.966Z,95244.69
2022-10-20T21:58:56.360Z,95248.78
2022-10-20T22:01:25.942Z,95245.09
2022-10-20T22:03:55.751Z,95241.28
2022-10-20T22:06:28.308Z,95247.81
2022-10-20T22:08:59.030Z,95243.53
2022-10-20T22:11:29.379Z,95240.16
2022-10-20T22:13:58.362Z,95252.44
2022-10-20T22:16:29.446Z,95256.13
2022-10-20T22:18:59.975Z,95255.94
2022-10-20T22:21:29.139Z,95258.56
2022-10-20T22:23:58.544Z,95241.13
2022-10-20T22:26:27.245Z,95242.50
2022-10-20T22:28:55.582Z,95248.81
2022-10-20T22:31:24.057Z,95242.16
2022-10-20T22:33:52.285Z,95222.44
2022-10-20T22:36:22.617Z,95221.44
2022-10-20T22:38:50.557Z,95241.00
2022-10-20T22:41:18.607Z,95244.44
2022-10-20T22:43:46.444Z,95236.78
2022-10-20T22:46:15.692Z,95226.78
2022-10-20T22:48:43.617Z,95223.03
2022-10-20T22:51:11.908Z,95218.75
2022-10-20T22:53:41.551Z,95222.50
2022-10-20T22:56:11.520Z,95226.00
2022-10-20T22:58:40.060Z,95218.25
2022-10-20T23:01:09.977Z,95212.53
2022-10-20T23:03:38.079Z,95214.78
2022-10-20T23:06:13.015Z,95199.88
2022-10-20T23:08:44.179Z,95205.25
2022-10-20T23:11:12.072Z,95203.34
2022-10-20T23:13:39.892Z,95188.19
2022-10-20T23:16:08.243Z,95171.56
2022-10-20T23:18:36.490Z,95171.00
2022-10-20T23:21:05.100Z,95162.50
2022-10-20T23:23:36.417Z,95161.00
2022-10-20T23:26:06.524Z,95152.22
2022-10-20T23:28:34.711Z,95164.19
2022-10-20T23:31:06.820Z,95153.25
2022-10-20T23:33:34.724Z,95147.84
2022-10-20T23:36:02.503Z,95140.00
2022-10-20T23:38:30.544Z,95146.72
2022-10-20T23:40:58.387Z,95145.06
2022-10-20T23:43:27.572Z,95128.03
2022-10-20T23:45:55.447Z,95128.72
2022-10-20T23:48:23.180Z,95136.06
2022-10-20T23:50:51.078Z,95128.63
2022-10-20T23:53:18.910Z,95125.66
2022-10-20T23:55:48.114Z,95106.53
2022-10-20T23:58:15.994Z,95114.75
